sensor_id;sensor_type;location;lat;lon;timestamp;pressure;altitude;pressure_sealevel;temperature
75811;BMP280;64449;50.016;19.954;2022-12-18T00:00:43;100120.64;;;-1.29
75811;BMP280;64449;50.016;19.954;2022-12-18T00:03:09;100118.39;;;-1.34
75811;BMP280;64449;50.016;19.954;2022-12-18T00:05:35;100127.45;;;-1.36
75811;BMP280;64449;50.016;19.954;2022-12-18T00:08:00;100129.80;;;-1.36
75811;BMP280;64449;50.016;19.954;2022-12-18T00:10:27;100129.30;;;-1.36
75811;BMP280;64449;50.016;19.954;2022-12-18T00:12:53;100133.66;;;-1.37
75811;BMP280;64449;50.016;19.954;2022-12-18T00:15:18;100133.80;;;-1.38
75811;BMP280;64449;50.016;19.954;2022-12-18T00:17:44;100138.72;;;-1.40
75811;BMP280;64449;50.016;19.954;2022-12-18T00:20:10;100145.54;;;-1.41
75811;BMP280;64449;50.016;19.954;2022-12-18T00:22:35;100145.84;;;-1.42
75811;BMP280;64449;50.016;19.954;2022-12-18T00:25:00;100153.65;;;-1.43
75811;BMP280;64449;50.016;19.954;2022-12-18T00:27:26;100157.73;;;-1.42
75811;BMP280;64449;50.016;19.954;2022-12-18T00:29:51;100158.20;;;-1.42
75811;BMP280;64449;50.016;19.954;2022-12-18T00:32:17;100161.15;;;-1.41
75811;BMP280;64449;50.016;19.954;2022-12-18T00:34:42;100165.92;;;-1.40
75811;BMP280;64449;50.016;19.954;2022-12-18T00:37:07;100160.55;;;-1.38
75811;BMP280;64449;50.016;19.954;2022-12-18T00:39:33;100164.35;;;-1.37
75811;BMP280;64449;50.016;19.954;2022-12-18T00:41:58;100165.98;;;-1.35
75811;BMP280;64449;50.016;19.954;2022-12-18T00:44:42;100170.23;;;-1.37
75811;BMP280;64449;50.016;19.954;2022-12-18T00:47:07;100174.45;;;-1.40
75811;BMP280;64449;50.016;19.954;2022-12-18T00:49:33;100180.23;;;-1.43
75811;BMP280;64449;50.016;19.954;2022-12-18T00:51:58;100181.94;;;-1.46
75811;BMP280;64449;50.016;19.954;2022-12-18T00:54:24;100188.84;;;-1.47
75811;BMP280;64449;50.016;19.954;2022-12-18T00:56:49;100193.73;;;-1.46
75811;BMP280;64449;50.016;19.954;2022-12-18T00:59:15;100193.45;;;-1.43
75811;BMP280;64449;50.016;19.954;2022-12-18T01:01:41;100195.30;;;-1.42
75811;BMP280;64449;50.016;19.954;2022-12-18T01:04:06;100194.34;;;-1.40
75811;BMP280;64449;50.016;19.954;2022-12-18T01:06:32;100200.67;;;-1.37
75811;BMP280;64449;50.016;19.954;2022-12-18T01:08:57;100199.46;;;-1.35
75811;BMP280;64449;50.016;19.954;2022-12-18T01:11:23;100208.80;;;-1.33
75811;BMP280;64449;50.016;19.954;2022-12-18T01:13:49;100209.30;;;-1.33
75811;BMP280;64449;50.016;19.954;2022-12-18T01:16:16;100214.49;;;-1.33
75811;BMP280;64449;50.016;19.954;2022-12-18T01:18:41;100214.88;;;-1.33
75811;BMP280;64449;50.016;19.954;2022-12-18T01:21:12;100220.74;;;-1.31
75811;BMP280;64449;50.016;19.954;2022-12-18T01:23:38;100225.72;;;-1.29
75811;BMP280;64449;50.016;19.954;2022-12-18T01:26:09;100226.36;;;-1.27
75811;BMP280;64449;50.016;19.954;2022-12-18T01:28:35;100224.55;;;-1.26
75811;BMP280;64449;50.016;19.954;2022-12-18T01:31:33;100223.20;;;-1.24
75811;BMP280;64449;50.016;19.954;2022-12-18T01:34:03;100222.64;;;-1.22
75811;BMP280;64449;50.016;19.954;2022-12-18T01:36:31;100227.49;;;-1.21
75811;BMP280;64449;50.016;19.954;2022-12-18T01:38:59;100233.23;;;-1.21
75811;BMP280;64449;50.016;19.954;2022-12-18T01:41:28;100238.73;;;-1.21
75811;BMP280;64449;50.016;19.954;2022-12-18T01:49:47;100240.84;;;-1.19
75811;BMP280;64449;50.016;19.954;2022-12-18T01:52:13;100239.95;;;-1.18
75811;BMP280;64449;50.016;19.954;2022-12-18T01:54:39;100246.20;;;-1.17
75811;BMP280;64449;50.016;19.954;2022-12-18T01:57:04;100243.45;;;-1.17
75811;BMP280;64449;50.016;19.954;2022-12-18T01:59:31;100244.63;;;-1.16
75811;BMP280;64449;50.016;19.954;2022-12-18T02:01:58;100247.61;;;-1.16
75811;BMP280;64449;50.016;19.954;2022-12-18T02:04:26;100245.94;;;-1.16
75811;BMP280;64449;50.016;19.954;2022-12-18T02:09:33;100254.61;;;-1.19
75811;BMP280;64449;50.016;19.954;2022-12-18T02:12:18;100264.16;;;-1.19
75811;BMP280;64449;50.016;19.954;2022-12-18T02:18:02;100271.81;;;-1.17
75811;BMP280;64449;50.016;19.954;2022-12-18T02:20:35;100273.44;;;-1.14
75811;BMP280;64449;50.016;19.954;2022-12-18T02:23:15;100280.11;;;-1.13
75811;BMP280;64449;50.016;19.954;2022-12-18T02:29:05;100288.91;;;-1.13
75811;BMP280;64449;50.016;19.954;2022-12-18T02:31:36;100293.45;;;-1.13
75811;BMP280;64449;50.016;19.954;2022-12-18T02:34:06;100299.02;;;-1.14
75811;BMP280;64449;50.016;19.954;2022-12-18T02:36:33;100300.18;;;-1.13
75811;BMP280;64449;50.016;19.954;2022-12-18T02:39:00;100294.92;;;-1.13
75811;BMP280;64449;50.016;19.954;2022-12-18T02:41:26;100299.58;;;-1.16
75811;BMP280;64449;50.016;19.954;2022-12-18T02:43:59;100300.13;;;-1.17
75811;BMP280;64449;50.016;19.954;2022-12-18T02:46:26;100300.15;;;-1.15
75811;BMP280;64449;50.016;19.954;2022-12-18T02:48:59;100311.90;;;-1.13
75811;BMP280;64449;50.016;19.954;2022-12-18T02:51:33;100314.52;;;-1.12
75811;BMP280;64449;50.016;19.954;2022-12-18T02:56:55;100326.45;;;-1.12
75811;BMP280;64449;50.016;19.954;2022-12-18T02:59:31;100327.35;;;-1.10
75811;BMP280;64449;50.016;19.954;2022-12-18T03:02:20;100325.45;;;-1.10
75811;BMP280;64449;50.016;19.954;2022-12-18T03:04:55;100327.73;;;-1.11
75811;BMP280;64449;50.016;19.954;2022-12-18T03:07:30;100328.09;;;-1.11
75811;BMP280;64449;50.016;19.954;2022-12-18T03:10:00;100327.05;;;-1.11
75811;BMP280;64449;50.016;19.954;2022-12-18T03:12:37;100329.64;;;-1.11
75811;BMP280;64449;50.016;19.954;2022-12-18T03:15:13;100336.75;;;-1.10
75811;BMP280;64449;50.016;19.954;2022-12-18T03:17:42;100337.25;;;-1.10
75811;BMP280;64449;50.016;19.954;2022-12-18T03:20:14;100343.46;;;-1.10
75811;BMP280;64449;50.016;19.954;2022-12-18T03:22:45;100341.82;;;-1.10
75811;BMP280;64449;50.016;19.954;2022-12-18T03:25:13;100344.38;;;-1.07
75811;BMP280;64449;50.016;19.954;2022-12-18T03:27:46;100343.71;;;-1.04
75811;BMP280;64449;50.016;19.954;2022-12-18T03:30:15;100348.41;;;-1.01
75811;BMP280;64449;50.016;19.954;2022-12-18T03:35:11;100354.55;;;-0.98
75811;BMP280;64449;50.016;19.954;2022-12-18T03:37:38;100359.17;;;-0.99
75811;BMP280;64449;50.016;19.954;2022-12-18T03:40:04;100358.80;;;-1.00
75811;BMP280;64449;50.016;19.954;2022-12-18T03:42:48;100362.96;;;-0.98
75811;BMP280;64449;50.016;19.954;2022-12-18T03:45:30;100368.53;;;-0.99
75811;BMP280;64449;50.016;19.954;2022-12-18T03:48:06;100371.64;;;-1.01
75811;BMP280;64449;50.016;19.954;2022-12-18T03:53:22;100377.81;;;-1.07
75811;BMP280;64449;50.016;19.954;2022-12-18T03:55:50;100377.43;;;-1.13
75811;BMP280;64449;50.016;19.954;2022-12-18T03:58:20;100377.09;;;-1.16
75811;BMP280;64449;50.016;19.954;2022-12-18T04:00:49;100374.83;;;-1.19
75811;BMP280;64449;50.016;19.954;2022-12-18T04:03:17;100372.04;;;-1.20
75811;BMP280;64449;50.016;19.954;2022-12-18T04:05:45;100378.46;;;-1.20
75811;BMP280;64449;50.016;19.954;2022-12-18T04:08:12;100388.14;;;-1.18
75811;BMP280;64449;50.016;19.954;2022-12-18T04:10:38;100387.73;;;-1.17
75811;BMP280;64449;50.016;19.954;2022-12-18T04:13:03;100387.97;;;-1.15
75811;BMP280;64449;50.016;19.954;2022-12-18T04:15:29;100389.11;;;-1.14
75811;BMP280;64449;50.016;19.954;2022-12-18T04:17:54;100393.15;;;-1.14
75811;BMP280;64449;50.016;19.954;2022-12-18T04:20:20;100398.01;;;-1.12
75811;BMP280;64449;50.016;19.954;2022-12-18T04:22:45;100399.62;;;-1.12
75811;BMP280;64449;50.016;19.954;2022-12-18T04:25:10;100399.88;;;-1.12
75811;BMP280;64449;50.016;19.954;2022-12-18T04:27:36;100401.86;;;-1.13
75811;BMP280;64449;50.016;19.954;2022-12-18T04:30:01;100403.46;;;-1.15
75811;BMP280;64449;50.016;19.954;2022-12-18T04:32:27;100406.55;;;-1.16
75811;BMP280;64449;50.016;19.954;2022-12-18T04:34:52;100410.86;;;-1.17
75811;BMP280;64449;50.016;19.954;2022-12-18T04:37:17;100410.60;;;-1.19
75811;BMP280;64449;50.016;19.954;2022-12-18T04:39:43;100413.23;;;-1.23
75811;BMP280;64449;50.016;19.954;2022-12-18T04:42:08;100417.45;;;-1.25
75811;BMP280;64449;50.016;19.954;2022-12-18T04:44:34;100417.94;;;-1.28
75811;BMP280;64449;50.016;19.954;2022-12-18T04:46:59;100422.83;;;-1.31
75811;BMP280;64449;50.016;19.954;2022-12-18T04:49:24;100424.98;;;-1.33
75811;BMP280;64449;50.016;19.954;2022-12-18T04:51:50;100426.39;;;-1.33
75811;BMP280;64449;50.016;19.954;2022-12-18T04:54:15;100428.45;;;-1.33
75811;BMP280;64449;50.016;19.954;2022-12-18T04:56:41;100433.48;;;-1.33
75811;BMP280;64449;50.016;19.954;2022-12-18T04:59:06;100436.10;;;-1.33
75811;BMP280;64449;50.016;19.954;2022-12-18T05:01:32;100441.62;;;-1.34
75811;BMP280;64449;50.016;19.954;2022-12-18T05:03:57;100444.21;;;-1.33
75811;BMP280;64449;50.016;19.954;2022-12-18T05:06:23;100446.96;;;-1.31
75811;BMP280;64449;50.016;19.954;2022-12-18T05:08:48;100446.23;;;-1.31
75811;BMP280;64449;50.016;19.954;2022-12-18T05:11:14;100451.80;;;-1.29
75811;BMP280;64449;50.016;19.954;2022-12-18T05:13:41;100449.27;;;-1.30
75811;BMP280;64449;50.016;19.954;2022-12-18T05:16:07;100448.44;;;-1.29
75811;BMP280;64449;50.016;19.954;2022-12-18T05:18:33;100450.44;;;-1.28
75811;BMP280;64449;50.016;19.954;2022-12-18T05:20:59;100452.20;;;-1.27
75811;BMP280;64449;50.016;19.954;2022-12-18T05:23:25;100453.42;;;-1.28
75811;BMP280;64449;50.016;19.954;2022-12-18T05:26:01;100456.77;;;-1.29
75811;BMP280;64449;50.016;19.954;2022-12-18T05:28:29;100461.97;;;-1.31
75811;BMP280;64449;50.016;19.954;2022-12-18T05:30:57;100466.85;;;-1.32
75811;BMP280;64449;50.016;19.954;2022-12-18T05:33:24;100467.38;;;-1.31
75811;BMP280;64449;50.016;19.954;2022-12-18T05:35:55;100469.48;;;-1.32
75811;BMP280;64449;50.016;19.954;2022-12-18T05:38:22;100470.39;;;-1.32
75811;BMP280;64449;50.016;19.954;2022-12-18T05:40:49;100473.79;;;-1.33
75811;BMP280;64449;50.016;19.954;2022-12-18T05:43:15;100477.95;;;-1.35
75811;BMP280;64449;50.016;19.954;2022-12-18T05:45:41;100479.59;;;-1.35
75811;BMP280;64449;50.016;19.954;2022-12-18T05:48:07;100480.82;;;-1.36
75811;BMP280;64449;50.016;19.954;2022-12-18T05:50:40;100489.92;;;-1.38
75811;BMP280;64449;50.016;19.954;2022-12-18T05:53:07;100492.86;;;-1.40
75811;BMP280;64449;50.016;19.954;2022-12-18T05:55:34;100493.71;;;-1.38
75811;BMP280;64449;50.016;19.954;2022-12-18T05:58:00;100495.94;;;-1.38
75811;BMP280;64449;50.016;19.954;2022-12-18T06:00:26;100497.59;;;-1.37
75811;BMP280;64449;50.016;19.954;2022-12-18T06:02:51;100499.56;;;-1.34
75811;BMP280;64449;50.016;19.954;2022-12-18T06:05:16;100503.31;;;-1.30
75811;BMP280;64449;50.016;19.954;2022-12-18T06:07:42;100508.20;;;-1.24
75811;BMP280;64449;50.016;19.954;2022-12-18T06:10:07;100510.47;;;-1.18
75811;BMP280;64449;50.016;19.954;2022-12-18T06:12:33;100511.25;;;-1.12
75811;BMP280;64449;50.016;19.954;2022-12-18T06:15:01;100517.16;;;-1.06
75811;BMP280;64449;50.016;19.954;2022-12-18T06:17:30;100518.81;;;-1.02
75811;BMP280;64449;50.016;19.954;2022-12-18T06:19:55;100523.64;;;-0.98
75811;BMP280;64449;50.016;19.954;2022-12-18T06:22:21;100528.27;;;-0.94
75811;BMP280;64449;50.016;19.954;2022-12-18T06:24:46;100530.04;;;-0.93
75811;BMP280;64449;50.016;19.954;2022-12-18T06:27:12;100529.52;;;-0.95
75811;BMP280;64449;50.016;19.954;2022-12-18T06:29:37;100528.78;;;-0.98
75811;BMP280;64449;50.016;19.954;2022-12-18T06:32:03;100531.34;;;-1.03
75811;BMP280;64449;50.016;19.954;2022-12-18T06:34:28;100528.48;;;-1.08
75811;BMP280;64449;50.016;19.954;2022-12-18T06:36:54;100535.36;;;-1.13
75811;BMP280;64449;50.016;19.954;2022-12-18T06:39:19;100533.45;;;-1.17
75811;BMP280;64449;50.016;19.954;2022-12-18T06:41:45;100537.79;;;-1.19
75811;BMP280;64449;50.016;19.954;2022-12-18T06:44:10;100542.09;;;-1.22
75811;BMP280;64449;50.016;19.954;2022-12-18T06:46:36;100546.98;;;-1.26
75811;BMP280;64449;50.016;19.954;2022-12-18T06:49:03;100551.56;;;-1.27
75811;BMP280;64449;50.016;19.954;2022-12-18T06:51:28;100556.64;;;-1.28
75811;BMP280;64449;50.016;19.954;2022-12-18T06:53:53;100560.05;;;-1.29
75811;BMP280;64449;50.016;19.954;2022-12-18T06:56:19;100559.36;;;-1.29
75811;BMP280;64449;50.016;19.954;2022-12-18T06:58:44;100562.40;;;-1.30
75811;BMP280;64449;50.016;19.954;2022-12-18T07:01:11;100565.95;;;-1.31
75811;BMP280;64449;50.016;19.954;2022-12-18T07:03:37;100570.96;;;-1.30
75811;BMP280;64449;50.016;19.954;2022-12-18T07:06:03;100571.88;;;-1.27
75811;BMP280;64449;50.016;19.954;2022-12-18T07:08:30;100574.15;;;-1.23
75811;BMP280;64449;50.016;19.954;2022-12-18T07:10:56;100577.14;;;-1.19
75811;BMP280;64449;50.016;19.954;2022-12-18T07:13:21;100582.36;;;-1.14
75811;BMP280;64449;50.016;19.954;2022-12-18T07:15:46;100581.60;;;-1.11
75811;BMP280;64449;50.016;19.954;2022-12-18T07:18:12;100588.57;;;-1.07
75811;BMP280;64449;50.016;19.954;2022-12-18T07:20:37;100594.08;;;-1.04
75811;BMP280;64449;50.016;19.954;2022-12-18T07:23:05;100598.79;;;-1.04
75811;BMP280;64449;50.016;19.954;2022-12-18T07:25:34;100604.27;;;-1.03
75811;BMP280;64449;50.016;19.954;2022-12-18T07:28:00;100605.47;;;-1.02
75811;BMP280;64449;50.016;19.954;2022-12-18T07:30:25;100607.27;;;-1.00
75811;BMP280;64449;50.016;19.954;2022-12-18T07:32:51;100610.10;;;-1.00
75811;BMP280;64449;50.016;19.954;2022-12-18T07:35:16;100611.45;;;-0.99
75811;BMP280;64449;50.016;19.954;2022-12-18T07:37:41;100614.90;;;-1.00
75811;BMP280;64449;50.016;19.954;2022-12-18T07:40:08;100622.65;;;-1.03
75811;BMP280;64449;50.016;19.954;2022-12-18T07:42:33;100626.69;;;-1.06
75811;BMP280;64449;50.016;19.954;2022-12-18T07:45:00;100629.14;;;-1.06
75811;BMP280;64449;50.016;19.954;2022-12-18T07:47:34;100632.83;;;-1.04
75811;BMP280;64449;50.016;19.954;2022-12-18T07:49:59;100634.71;;;-1.03
75811;BMP280;64449;50.016;19.954;2022-12-18T07:52:24;100637.44;;;-1.02
75811;BMP280;64449;50.016;19.954;2022-12-18T07:54:50;100639.73;;;-1.03
75811;BMP280;64449;50.016;19.954;2022-12-18T07:57:16;100645.83;;;-1.04
75811;BMP280;64449;50.016;19.954;2022-12-18T07:59:43;100648.34;;;-1.04
75811;BMP280;64449;50.016;19.954;2022-12-18T08:02:08;100645.97;;;-1.02
75811;BMP280;64449;50.016;19.954;2022-12-18T08:04:34;100644.59;;;-0.98
75811;BMP280;64449;50.016;19.954;2022-12-18T08:06:59;100646.14;;;-0.93
75811;BMP280;64449;50.016;19.954;2022-12-18T08:09:25;100644.42;;;-0.87
75811;BMP280;64449;50.016;19.954;2022-12-18T08:11:50;100642.58;;;-0.82
75811;BMP280;64449;50.016;19.954;2022-12-18T08:14:16;100643.49;;;-0.76
75811;BMP280;64449;50.016;19.954;2022-12-18T08:16:41;100646.23;;;-0.71
75811;BMP280;64449;50.016;19.954;2022-12-18T08:19:07;100653.02;;;-0.65
75811;BMP280;64449;50.016;19.954;2022-12-18T08:21:32;100651.49;;;-0.60
75811;BMP280;64449;50.016;19.954;2022-12-18T08:23:59;100653.67;;;-0.58
75811;BMP280;64449;50.016;19.954;2022-12-18T08:26:26;100651.23;;;-0.55
75811;BMP280;64449;50.016;19.954;2022-12-18T08:28:54;100655.12;;;-0.53
75811;BMP280;64449;50.016;19.954;2022-12-18T08:31:20;100660.08;;;-0.50
75811;BMP280;64449;50.016;19.954;2022-12-18T08:33:48;100661.54;;;-0.48
75811;BMP280;64449;50.016;19.954;2022-12-18T08:36:14;100664.33;;;-0.46
75811;BMP280;64449;50.016;19.954;2022-12-18T08:38:40;100664.41;;;-0.42
75811;BMP280;64449;50.016;19.954;2022-12-18T08:41:07;100664.67;;;-0.41
75811;BMP280;64449;50.016;19.954;2022-12-18T08:43:33;100665.73;;;-0.38
75811;BMP280;64449;50.016;19.954;2022-12-18T08:46:23;100665.55;;;-0.33
75811;BMP280;64449;50.016;19.954;2022-12-18T08:48:50;100669.20;;;-0.29
75811;BMP280;64449;50.016;19.954;2022-12-18T08:51:17;100673.36;;;-0.25
75811;BMP280;64449;50.016;19.954;2022-12-18T08:53:43;100672.73;;;-0.21
75811;BMP280;64449;50.016;19.954;2022-12-18T08:56:09;100675.80;;;-0.18
75811;BMP280;64449;50.016;19.954;2022-12-18T08:58:35;100682.27;;;-0.16
75811;BMP280;64449;50.016;19.954;2022-12-18T09:01:02;100685.80;;;-0.13
75811;BMP280;64449;50.016;19.954;2022-12-18T09:03:27;100688.44;;;-0.09
75811;BMP280;64449;50.016;19.954;2022-12-18T09:05:53;100684.80;;;-0.05
75811;BMP280;64449;50.016;19.954;2022-12-18T09:08:18;100684.52;;;-0.01
75811;BMP280;64449;50.016;19.954;2022-12-18T09:10:45;100685.88;;;0.05
75811;BMP280;64449;50.016;19.954;2022-12-18T09:13:11;100686.00;;;0.10
75811;BMP280;64449;50.016;19.954;2022-12-18T09:15:45;100687.92;;;0.16
75811;BMP280;64449;50.016;19.954;2022-12-18T09:18:11;100689.65;;;0.24
75811;BMP280;64449;50.016;19.954;2022-12-18T09:20:37;100691.95;;;0.33
75811;BMP280;64449;50.016;19.954;2022-12-18T09:23:04;100690.96;;;0.43
75811;BMP280;64449;50.016;19.954;2022-12-18T09:25:30;100693.15;;;0.54
75811;BMP280;64449;50.016;19.954;2022-12-18T09:27:59;100693.55;;;0.66
75811;BMP280;64449;50.016;19.954;2022-12-18T09:30:24;100699.77;;;0.77
75811;BMP280;64449;50.016;19.954;2022-12-18T09:32:49;100698.58;;;0.89
75811;BMP280;64449;50.016;19.954;2022-12-18T09:35:15;100702.40;;;1.01
75811;BMP280;64449;50.016;19.954;2022-12-18T09:37:40;100705.02;;;1.08
75811;BMP280;64449;50.016;19.954;2022-12-18T09:40:14;100704.60;;;1.18
75811;BMP280;64449;50.016;19.954;2022-12-18T09:42:39;100704.33;;;1.30
75811;BMP280;64449;50.016;19.954;2022-12-18T09:45:12;100696.73;;;1.39
75811;BMP280;64449;50.016;19.954;2022-12-18T09:47:40;100695.84;;;1.48
75811;BMP280;64449;50.016;19.954;2022-12-18T09:50:29;100695.13;;;1.55
75811;BMP280;64449;50.016;19.954;2022-12-18T09:53:02;100694.10;;;1.62
75811;BMP280;64449;50.016;19.954;2022-12-18T09:55:39;100696.48;;;1.68
75811;BMP280;64449;50.016;19.954;2022-12-18T10:00:37;100700.45;;;1.77
75811;BMP280;64449;50.016;19.954;2022-12-18T10:03:09;100702.23;;;1.82
75811;BMP280;64449;50.016;19.954;2022-12-18T10:11:28;100698.22;;;2.27
75811;BMP280;64449;50.016;19.954;2022-12-18T10:13:59;100697.06;;;2.43
75811;BMP280;64449;50.016;19.954;2022-12-18T10:16:48;100700.39;;;2.53
75811;BMP280;64449;50.016;19.954;2022-12-18T10:22:23;100700.02;;;2.82
75811;BMP280;64449;50.016;19.954;2022-12-18T10:25:05;100704.84;;;3.08
75811;BMP280;64449;50.016;19.954;2022-12-18T10:27:32;100712.12;;;3.34
75811;BMP280;64449;50.016;19.954;2022-12-18T10:29:57;100710.46;;;3.54
75811;BMP280;64449;50.016;19.954;2022-12-18T10:32:26;100707.03;;;3.74
75811;BMP280;64449;50.016;19.954;2022-12-18T10:34:55;100699.87;;;3.96
75811;BMP280;64449;50.016;19.954;2022-12-18T10:37:24;100692.16;;;4.20
75811;BMP280;64449;50.016;19.954;2022-12-18T10:40:19;100684.85;;;4.43
75811;BMP280;64449;50.016;19.954;2022-12-18T10:42:44;100685.29;;;4.69
75811;BMP280;64449;50.016;19.954;2022-12-18T10:45:14;100685.55;;;4.93
75811;BMP280;64449;50.016;19.954;2022-12-18T10:47:58;100687.20;;;5.11
75811;BMP280;64449;50.016;19.954;2022-12-18T10:50:30;100690.39;;;5.30
75811;BMP280;64449;50.016;19.954;2022-12-18T10:53:01;100685.27;;;5.50
75811;BMP280;64449;50.016;19.954;2022-12-18T10:55:33;100679.05;;;5.67
75811;BMP280;64449;50.016;19.954;2022-12-18T11:04:07;100669.42;;;6.20
75811;BMP280;64449;50.016;19.954;2022-12-18T11:06:28;100671.27;;;6.40
75811;BMP280;64449;50.016;19.954;2022-12-18T11:09:20;100669.77;;;6.52
75811;BMP280;64449;50.016;19.954;2022-12-18T11:11:55;100665.65;;;6.66
75811;BMP280;64449;50.016;19.954;2022-12-18T11:14:24;100666.14;;;6.77
75811;BMP280;64449;50.016;19.954;2022-12-18T11:16:50;100663.46;;;6.83
75811;BMP280;64449;50.016;19.954;2022-12-18T11:21:55;100652.37;;;6.98
75811;BMP280;64449;50.016;19.954;2022-12-18T11:24:31;100645.40;;;7.01
75811;BMP280;64449;50.016;19.954;2022-12-18T11:27:02;100644.66;;;7.02
75811;BMP280;64449;50.016;19.954;2022-12-18T11:29:39;100638.25;;;7.03
75811;BMP280;64449;50.016;19.954;2022-12-18T11:32:31;100633.61;;;7.06
75811;BMP280;64449;50.016;19.954;2022-12-18T11:35:10;100633.45;;;7.09
75811;BMP280;64449;50.016;19.954;2022-12-18T11:37:37;100640.57;;;7.02
75811;BMP280;64449;50.016;19.954;2022-12-18T11:40:28;100643.17;;;7.01
75811;BMP280;64449;50.016;19.954;2022-12-18T11:45:31;100645.31;;;6.96
75811;BMP280;64449;50.016;19.954;2022-12-18T11:48:22;100646.03;;;6.91
75811;BMP280;64449;50.016;19.954;2022-12-18T11:50:56;100649.14;;;6.87
75811;BMP280;64449;50.016;19.954;2022-12-18T11:53:25;100651.11;;;6.87
75811;BMP280;64449;50.016;19.954;2022-12-18T12:33:49;100656.55;;;6.39
75811;BMP280;64449;50.016;19.954;2022-12-18T12:39:13;100664.92;;;6.22
75811;BMP280;64449;50.016;19.954;2022-12-18T12:41:41;100670.52;;;6.16
75811;BMP280;64449;50.016;19.954;2022-12-18T12:44:38;100678.63;;;6.11
75811;BMP280;64449;50.016;19.954;2022-12-18T12:47:17;100687.51;;;6.03
75811;BMP280;64449;50.016;19.954;2022-12-18T12:49:44;100690.60;;;5.99
75811;BMP280;64449;50.016;19.954;2022-12-18T12:52:17;100687.79;;;5.96
75811;BMP280;64449;50.016;19.954;2022-12-18T12:54:46;100688.54;;;5.86
75811;BMP280;64449;50.016;19.954;2022-12-18T12:57:43;100692.56;;;5.77
75811;BMP280;64449;50.016;19.954;2022-12-18T13:00:18;100696.40;;;5.66
75811;BMP280;64449;50.016;19.954;2022-12-18T13:05:37;100704.77;;;5.56
75811;BMP280;64449;50.016;19.954;2022-12-18T13:08:07;100709.42;;;5.51
75811;BMP280;64449;50.016;19.954;2022-12-18T13:10:40;100711.33;;;5.43
75811;BMP280;64449;50.016;19.954;2022-12-18T13:13:09;100714.96;;;5.36
75811;BMP280;64449;50.016;19.954;2022-12-18T13:15:40;100715.65;;;5.27
75811;BMP280;64449;50.016;19.954;2022-12-18T13:20:35;100713.72;;;5.18
75811;BMP280;64449;50.016;19.954;2022-12-18T13:23:19;100710.71;;;5.11
75811;BMP280;64449;50.016;19.954;2022-12-18T13:25:45;100713.60;;;4.98
75811;BMP280;64449;50.016;19.954;2022-12-18T13:28:13;100714.08;;;4.86
75811;BMP280;64449;50.016;19.954;2022-12-18T13:30:49;100715.70;;;4.76
75811;BMP280;64449;50.016;19.954;2022-12-18T13:36:00;100716.33;;;4.61
75811;BMP280;64449;50.016;19.954;2022-12-18T13:38:37;100716.14;;;4.48
75811;BMP280;64449;50.016;19.954;2022-12-18T13:43:51;100725.71;;;4.18
75811;BMP280;64449;50.016;19.954;2022-12-18T13:51:44;100736.64;;;3.80
75811;BMP280;64449;50.016;19.954;2022-12-18T13:54:34;100738.34;;;3.69
75811;BMP280;64449;50.016;19.954;2022-12-18T13:57:01;100749.77;;;3.57
75811;BMP280;64449;50.016;19.954;2022-12-18T13:59:39;100747.11;;;3.44
75811;BMP280;64449;50.016;19.954;2022-12-18T14:02:16;100747.33;;;3.32
75811;BMP280;64449;50.016;19.954;2022-12-18T14:04:45;100747.46;;;3.16
75811;BMP280;64449;50.016;19.954;2022-12-18T14:09:49;100751.27;;;2.85
75811;BMP280;64449;50.016;19.954;2022-12-18T14:12:18;100753.95;;;2.74
75811;BMP280;64449;50.016;19.954;2022-12-18T14:15:05;100753.23;;;2.62
75811;BMP280;64449;50.016;19.954;2022-12-18T14:17:31;100754.35;;;2.49
75811;BMP280;64449;50.016;19.954;2022-12-18T14:19:57;100763.48;;;2.33
75811;BMP280;64449;50.016;19.954;2022-12-18T14:22:25;100760.02;;;2.17
75811;BMP280;64449;50.016;19.954;2022-12-18T14:25:13;100757.80;;;2.00
75811;BMP280;64449;50.016;19.954;2022-12-18T14:27:51;100761.01;;;1.79
75811;BMP280;64449;50.016;19.954;2022-12-18T14:30:24;100761.87;;;1.60
75811;BMP280;64449;50.016;19.954;2022-12-18T14:33:23;100761.49;;;1.41
75811;BMP280;64449;50.016;19.954;2022-12-18T14:38:28;100768.17;;;1.03
75811;BMP280;64449;50.016;19.954;2022-12-18T14:43:23;100774.45;;;0.69
75811;BMP280;64449;50.016;19.954;2022-12-18T14:45:49;100777.94;;;0.53
75811;BMP280;64449;50.016;19.954;2022-12-18T14:48:20;100778.17;;;0.37
75811;BMP280;64449;50.016;19.954;2022-12-18T14:50:56;100781.95;;;0.22
75811;BMP280;64449;50.016;19.954;2022-12-18T14:53:30;100787.66;;;0.07
75811;BMP280;64449;50.016;19.954;2022-12-18T14:55:56;100793.81;;;-0.07
75811;BMP280;64449;50.016;19.954;2022-12-18T14:58:22;100795.58;;;-0.20
75811;BMP280;64449;50.016;19.954;2022-12-18T15:00:47;100794.08;;;-0.32
75811;BMP280;64449;50.016;19.954;2022-12-18T15:03:18;100791.07;;;-0.43
75811;BMP280;64449;50.016;19.954;2022-12-18T15:05:44;100786.55;;;-0.57
75811;BMP280;64449;50.016;19.954;2022-12-18T15:08:30;100781.50;;;-0.68
75811;BMP280;64449;50.016;19.954;2022-12-18T15:10:56;100778.90;;;-0.81
75811;BMP280;64449;50.016;19.954;2022-12-18T15:13:22;100781.09;;;-0.95
75811;BMP280;64449;50.016;19.954;2022-12-18T15:15:48;100784.20;;;-1.11
75811;BMP280;64449;50.016;19.954;2022-12-18T15:18:17;100790.52;;;-1.23
75811;BMP280;64449;50.016;19.954;2022-12-18T15:20:57;100785.98;;;-1.37
75811;BMP280;64449;50.016;19.954;2022-12-18T15:23:32;100787.09;;;-1.48
75811;BMP280;64449;50.016;19.954;2022-12-18T15:28:34;100792.86;;;-1.62
75811;BMP280;64449;50.016;19.954;2022-12-18T15:31:57;100789.85;;;-1.72
75811;BMP280;64449;50.016;19.954;2022-12-18T15:36:18;100799.10;;;-1.86
75811;BMP280;64449;50.016;19.954;2022-12-18T15:38:47;100803.77;;;-1.92
75811;BMP280;64449;50.016;19.954;2022-12-18T15:41:15;100808.08;;;-1.99
75811;BMP280;64449;50.016;19.954;2022-12-18T15:43:41;100813.79;;;-2.05
75811;BMP280;64449;50.016;19.954;2022-12-18T15:46:11;100821.85;;;-2.08
75811;BMP280;64449;50.016;19.954;2022-12-18T15:48:48;100819.79;;;-2.10
75811;BMP280;64449;50.016;19.954;2022-12-18T15:51:17;100817.10;;;-2.13
75811;BMP280;64449;50.016;19.954;2022-12-18T15:53:43;100819.34;;;-2.15
75811;BMP280;64449;50.016;19.954;2022-12-18T15:56:11;100820.58;;;-2.18